Terminal Aerodrome Forecast
Issued by NWS Jackson, KY

Home | Current Version | Previous Version | Text Only | Print | Product List | Glossary On
Versions: 1 2 3 4 5 6 7 8 9 10 11 12 13 14 15 16 17 18 19
000
FTUS43 KJKL 271139
TAFLOZ
TAF
KLOZ 271139Z 2712/2812 VRB06KT P6SM VCSH OVC060
     FM271700 19010KT P6SM OVC120
     FM272300 20006KT P6SM BKN100
     FM280200 VRB03KT P6SM VCSH BKN110=

USA.gov is the U.S. government's official web portal to all federal, state and local government web resources and services.